Saint Felix Lauragais

FR-1037 · Upper Garonne, Occitanie, 法国

使用的TAF站离机场有33 km的距离
2024年7月22日 20:002024年7月23日 05:00有效
时间
星期一
20:00
星期一
21:00
星期一
22:00
星期一
23:00
星期二
00:00
星期二
01:00
星期二
02:00
星期二
03:00
星期二
04:00
代码
MVFR
MVFR
MVFR
MVFR
MVFR
MVFR
MVFR
MVFR
MVFR
天气
碎云
碎云
碎云
碎云
碎云
碎云
碎云
碎云
碎云
能见度
10 km+
10 km+
10 km+
10 km+
10 km+
10 km+
10 km+
10 km+
10 km+
天花板
3.000 ft
3.000 ft
3.000 ft
3.000 ft
3.000 ft
3.000 ft
3.000 ft
3.000 ft
3.000 ft
300°
300°
300°
300°
300°
300°
Var
Var
Var
Var
Var
Var
Var
Var
Var
Var
Var
Var
速度
10 kt
10 kt
10 kt
10 kt
10 kt
3 kt
3 kt
3 kt
3 kt
阵风
温度/星期日
21:24

原版的

TAF LFCK 221700Z 2218/2303 30010KT 9999 BKN030
BECMG 2219/2221 CAVOK
BECMG 2221/2223 VRB03KT

TAF Saint Felix Lauragais

Saint Felix Lauragais是,法国中的超轻型飞机场。 该机场位于纬度43,43833和经度1,90889。 该机场有一条跑道: 13/31. 这个机场没有ICAO代码,我们使用FR-1037作为参考。 机场在Bordeaux FIR中。

该航空气象观测是针对Castres-Mazamet Airport在2024年7月22日 19:00, 当地时间进行的。 从2024年7月22日 20:00到2024年7月23日 05:00, 当地时间有效.

预报

  • 在星期一 20:00和星期二 05:00之间

    • 风: 风来自300°方向,速度为10 kt。
    • 能见度: 10 km 或者更多
    • 乌云: 碎云在3.000 ft的高度.
  • 介于星期一 21:00和23:00之间

    • CAVOK: 天气为CAVOK。这意味着在5.000 ft或MSA(最低安全高度)以下(以较高者为准)以下没有云。这也意味着没有观测到积雨云或高耸的积云,可见度为10 km 或者更多或更高。此外,不会有雾,降雨或其他重要天气。
  • 介于星期一 23:00和星期二 01:00之间

    • 风: 可变方向的风很小或没有。

白天

今天,太阳从06:33升起,在21:24降落。 这适用于Saint Felix Lauragais,世界夏令时可能有所不同。 当地时间与世界标准时间之间的时差为+2 小时。 夏令时目前正在进行中。

报告变更